createdAt,value
2022-11-08T00:00:01.168Z,2.80
2022-11-08T00:02:28.685Z,2.65
2022-11-08T00:04:56.212Z,2.50
2022-11-08T00:07:41.965Z,2.67
2022-11-08T00:10:28.333Z,2.60
2022-11-08T00:13:13.960Z,2.47
2022-11-08T00:15:41.145Z,2.40
2022-11-08T00:18:08.593Z,2.60
2022-11-08T00:20:35.986Z,2.67
2022-11-08T00:23:03.996Z,2.85
2022-11-08T00:25:31.080Z,2.60
2022-11-08T00:27:58.301Z,2.60
2022-11-08T00:30:25.440Z,2.95
2022-11-08T00:32:52.731Z,2.97
2022-11-08T00:35:19.849Z,2.55
2022-11-08T00:37:46.992Z,2.30
2022-11-08T00:40:14.245Z,3.17
2022-11-08T00:42:41.479Z,2.45
2022-11-08T00:45:09.116Z,3.10
2022-11-08T00:47:36.188Z,2.85
2022-11-08T00:50:03.495Z,2.60
2022-11-08T00:52:30.616Z,2.90
2022-11-08T00:54:58.051Z,2.92
2022-11-08T00:57:41.204Z,2.60
2022-11-08T01:00:13.157Z,2.42
2022-11-08T01:02:40.319Z,2.45
2022-11-08T01:05:07.896Z,2.80
2022-11-08T01:07:35.123Z,2.80
2022-11-08T01:10:02.412Z,2.50
2022-11-08T01:12:29.847Z,2.60
2022-11-08T01:14:57.122Z,2.78
2022-11-08T01:17:24.257Z,2.38
2022-11-08T01:19:51.393Z,2.33
2022-11-08T01:22:18.477Z,2.50
2022-11-08T01:24:45.678Z,2.33
2022-11-08T01:27:12.898Z,2.63
2022-11-08T01:29:40.088Z,2.40
2022-11-08T01:32:07.142Z,2.53
2022-11-08T01:34:34.454Z,2.50
2022-11-08T01:37:01.739Z,2.03
2022-11-08T01:39:33.125Z,2.50
2022-11-08T01:42:00.232Z,2.58
2022-11-08T01:44:27.447Z,2.30
2022-11-08T01:46:54.819Z,2.65
2022-11-08T01:49:31.571Z,2.78
2022-11-08T01:52:07.356Z,2.35
2022-11-08T01:54:56.384Z,2.50
2022-11-08T01:57:34.989Z,2.70
2022-11-08T02:00:06.845Z,2.33
2022-11-08T02:02:35.971Z,2.67
2022-11-08T02:05:06.443Z,2.28
2022-11-08T02:07:34.992Z,2.20
2022-11-08T02:10:03.887Z,2.40
2022-11-08T02:12:31.006Z,2.33
2022-11-08T02:14:58.516Z,2.50
2022-11-08T02:17:25.746Z,2.40
2022-11-08T02:19:52.990Z,2.42
2022-11-08T02:22:46.488Z,2.50
2022-11-08T02:25:13.842Z,2.72
2022-11-08T02:27:41.009Z,2.30
2022-11-08T02:30:08.706Z,2.40
2022-11-08T02:32:42.996Z,2.35
2022-11-08T02:37:41.276Z,2.40
2022-11-08T02:40:09.062Z,2.25
2022-11-08T02:42:38.995Z,2.30
2022-11-08T02:45:07.846Z,2.40
2022-11-08T02:47:35.098Z,2.72
2022-11-08T02:50:02.514Z,2.92
2022-11-08T02:52:29.725Z,2.50
2022-11-08T02:54:56.869Z,2.42
2022-11-08T02:57:24.004Z,2.28
2022-11-08T02:59:51.249Z,2.28
2022-11-08T03:02:18.380Z,2.72
2022-11-08T03:04:45.814Z,2.42
2022-11-08T03:07:12.844Z,2.60
2022-11-08T03:09:39.966Z,2.40
2022-11-08T03:12:07.470Z,2.60
2022-11-08T03:14:34.641Z,2.78
2022-11-08T03:17:01.847Z,2.58
2022-11-08T03:19:29.066Z,2.42
2022-11-08T03:21:56.413Z,2.63
2022-11-08T03:24:23.428Z,2.67
2022-11-08T03:26:50.621Z,2.53
2022-11-08T03:29:17.927Z,2.90
2022-11-08T03:31:45.179Z,3.03
2022-11-08T03:34:12.563Z,2.60
2022-11-08T03:36:39.903Z,2.65
2022-11-08T03:39:07.090Z,2.92
2022-11-08T03:41:34.308Z,2.72
2022-11-08T03:44:01.498Z,2.80
2022-11-08T03:46:28.822Z,2.67
2022-11-08T03:48:55.958Z,3.13
2022-11-08T03:51:23.178Z,2.70
2022-11-08T03:53:50.586Z,2.97
2022-11-08T03:56:17.804Z,3.03
2022-11-08T03:58:44.980Z,2.85
2022-11-08T04:01:12.208Z,3.20
2022-11-08T04:03:39.437Z,3.25
2022-11-08T04:06:06.924Z,3.33
2022-11-08T04:08:34.453Z,3.53
2022-11-08T04:11:20.169Z,4.00
2022-11-08T04:14:05.709Z,3.38
2022-11-08T04:16:33.999Z,4.10
2022-11-08T04:19:20.228Z,3.88
2022-11-08T04:21:49.650Z,3.53
2022-11-08T04:24:17.610Z,4.10
2022-11-08T04:26:45.060Z,4.10
2022-11-08T04:29:13.399Z,3.85
2022-11-08T04:31:40.990Z,3.70
2022-11-08T04:34:08.323Z,3.97
2022-11-08T04:36:36.059Z,4.03
2022-11-08T04:39:03.218Z,3.70
2022-11-08T04:41:30.337Z,3.40
2022-11-08T04:43:57.980Z,3.22
2022-11-08T04:46:27.384Z,3.80
2022-11-08T04:48:56.857Z,3.92
2022-11-08T04:51:32.799Z,3.33
2022-11-08T04:54:02.377Z,3.67
2022-11-08T04:56:30.885Z,3.67
2022-11-08T04:58:59.847Z,3.55
2022-11-08T05:01:30.222Z,3.42
2022-11-08T05:03:58.360Z,3.50
2022-11-08T05:06:31.634Z,3.13
2022-11-08T05:08:59.654Z,3.67
2022-11-08T05:11:29.292Z,3.67
2022-11-08T05:13:56.880Z,3.53
2022-11-08T05:16:29.369Z,3.15
2022-11-08T05:18:56.892Z,3.15
2022-11-08T05:21:43.073Z,3.17
2022-11-08T05:24:12.900Z,3.38
2022-11-08T05:26:43.018Z,3.20
2022-11-08T05:29:11.073Z,2.70
2022-11-08T05:31:38.568Z,2.70
2022-11-08T05:34:07.437Z,2.90
2022-11-08T05:36:35.151Z,2.55
2022-11-08T05:39:02.442Z,2.83
2022-11-08T05:41:30.447Z,2.85
2022-11-08T05:43:57.740Z,2.38
2022-11-08T05:46:25.121Z,2.42
2022-11-08T05:48:52.731Z,2.45
2022-11-08T05:51:21.561Z,2.58
2022-11-08T05:53:49.061Z,3.13
2022-11-08T05:56:17.779Z,2.75
2022-11-08T05:58:45.790Z,2.63
2022-11-08T06:01:15.538Z,2.60
2022-11-08T06:03:43.100Z,2.50
2022-11-08T06:06:13.137Z,2.90
2022-11-08T06:08:44.934Z,2.55
2022-11-08T06:11:17.819Z,2.35
2022-11-08T06:13:44.976Z,2.60
2022-11-08T06:16:14.732Z,3.00
2022-11-08T06:18:42.225Z,3.08
2022-11-08T06:21:12.941Z,2.72
2022-11-08T06:23:40.563Z,3.03
2022-11-08T06:26:08.443Z,2.78
2022-11-08T06:28:36.221Z,2.95
2022-11-08T06:31:05.036Z,2.53
2022-11-08T06:33:32.641Z,2.42
2022-11-08T06:35:59.936Z,2.47
2022-11-08T06:38:27.240Z,2.22
2022-11-08T06:40:54.609Z,2.50
2022-11-08T06:43:22.046Z,2.75
2022-11-08T06:45:49.464Z,2.60
2022-11-08T06:48:16.654Z,2.70
2022-11-08T06:50:44.557Z,2.60
2022-11-08T06:53:13.797Z,2.40
2022-11-08T06:55:41.190Z,2.17
2022-11-08T06:58:08.529Z,2.40
2022-11-08T07:00:35.603Z,1.95
2022-11-08T07:03:04.094Z,2.35
2022-11-08T07:05:33.179Z,2.45
2022-11-08T07:08:01.664Z,1.88
2022-11-08T07:10:31.343Z,2.25
2022-11-08T07:13:04.189Z,2.13
2022-11-08T07:15:32.632Z,2.20
2022-11-08T07:18:11.326Z,2.85
2022-11-08T07:20:40.249Z,2.72
2022-11-08T07:23:09.059Z,2.10
2022-11-08T07:25:36.911Z,2.72
2022-11-08T07:28:07.167Z,2.08
2022-11-08T07:30:35.830Z,2.28
2022-11-08T07:33:03.808Z,2.00
2022-11-08T07:35:31.042Z,2.45
2022-11-08T07:37:58.815Z,2.20
2022-11-08T07:40:26.365Z,2.05
2022-11-08T07:45:41.974Z,2.25
2022-11-08T07:48:13.046Z,1.95
2022-11-08T07:50:41.961Z,2.08
2022-11-08T07:53:09.611Z,2.20
2022-11-08T07:55:38.560Z,2.00
2022-11-08T07:58:06.205Z,1.75
2022-11-08T08:00:38.790Z,2.15
2022-11-08T08:03:08.144Z,1.83
2022-11-08T08:05:42.327Z,1.80
2022-11-08T08:08:10.914Z,2.00
2022-11-08T08:10:38.441Z,1.70
2022-11-08T08:13:06.626Z,1.80
2022-11-08T08:15:34.088Z,1.90
2022-11-08T08:18:03.381Z,1.90
2022-11-08T08:20:32.076Z,1.85
2022-11-08T08:22:59.676Z,1.92
2022-11-08T08:25:29.201Z,2.00
2022-11-08T08:27:58.286Z,1.67
2022-11-08T08:30:25.986Z,1.80
2022-11-08T08:33:26.902Z,1.83
2022-11-08T08:35:54.210Z,1.80
2022-11-08T08:38:21.791Z,1.83
2022-11-08T08:40:49.013Z,1.75
2022-11-08T08:43:16.518Z,1.67
2022-11-08T08:45:44.021Z,2.50
2022-11-08T08:48:11.350Z,1.83
2022-11-08T08:50:38.740Z,1.75
2022-11-08T08:53:07.233Z,1.90
2022-11-08T08:55:35.639Z,1.88
2022-11-08T08:58:02.904Z,1.70
2022-11-08T09:03:17.724Z,1.80
2022-11-08T09:05:46.925Z,1.95
2022-11-08T09:08:14.896Z,1.77
2022-11-08T09:10:42.652Z,1.77
2022-11-08T09:13:10.430Z,1.88
2022-11-08T09:15:39.640Z,1.77
2022-11-08T09:18:07.309Z,2.05
2022-11-08T09:20:34.677Z,1.88
2022-11-08T09:23:03.791Z,1.80
2022-11-08T09:25:31.517Z,1.38
2022-11-08T09:27:58.944Z,1.70
2022-11-08T09:30:26.978Z,2.10
2022-11-08T09:33:02.580Z,1.70
2022-11-08T09:35:30.905Z,2.05
2022-11-08T09:37:58.826Z,1.95
2022-11-08T09:41:04.424Z,2.05
2022-11-08T09:43:44.863Z,2.00
2022-11-08T09:46:17.005Z,2.00
2022-11-08T09:48:45.576Z,2.20
2022-11-08T09:51:24.998Z,2.05
2022-11-08T09:54:01.870Z,2.00
2022-11-08T09:56:31.974Z,1.80
2022-11-08T09:59:20.584Z,2.25
2022-11-08T10:01:49.557Z,1.98
2022-11-08T10:04:22.641Z,2.22
2022-11-08T10:07:15.170Z,2.15
2022-11-08T10:10:01.415Z,1.70
2022-11-08T10:12:47.325Z,2.10
2022-11-08T10:15:17.511Z,2.00
2022-11-08T10:18:17.653Z,2.20
2022-11-08T10:21:05.635Z,2.00
2022-11-08T10:24:03.451Z,1.70
2022-11-08T10:26:36.960Z,2.15
2022-11-08T10:29:14.488Z,2.00
2022-11-08T10:31:43.448Z,1.75
2022-11-08T10:34:18.226Z,1.88
2022-11-08T10:36:48.201Z,1.88
2022-11-08T10:39:18.008Z,1.63
2022-11-08T10:42:10.833Z,2.00
2022-11-08T10:44:40.712Z,2.00
2022-11-08T10:47:14.589Z,2.00
2022-11-08T10:49:43.527Z,1.65
2022-11-08T10:52:31.576Z,1.45
2022-11-08T10:55:01.560Z,1.80
2022-11-08T10:57:31.971Z,1.67
2022-11-08T11:00:27.584Z,1.70
2022-11-08T11:03:16.725Z,2.40
2022-11-08T11:05:59.115Z,1.95
2022-11-08T11:08:26.977Z,1.98
2022-11-08T11:10:55.203Z,2.00
2022-11-08T11:13:24.206Z,1.70
2022-11-08T11:15:57.782Z,1.80
2022-11-08T11:18:32.674Z,2.17
2022-11-08T11:21:17.414Z,1.70
2022-11-08T11:23:56.574Z,1.83
2022-11-08T11:26:46.528Z,2.05
2022-11-08T11:29:26.910Z,2.00
2022-11-08T11:31:55.171Z,1.75
2022-11-08T11:34:28.358Z,1.80
2022-11-08T11:36:58.016Z,2.20
2022-11-08T11:39:32.181Z,2.00
2022-11-08T11:42:39.069Z,1.90
2022-11-08T11:45:40.489Z,2.40
2022-11-08T11:48:29.067Z,2.00
2022-11-08T11:50:57.682Z,1.85
2022-11-08T11:53:33.252Z,2.00
2022-11-08T11:56:25.707Z,1.60
2022-11-08T11:59:21.573Z,2.00
2022-11-08T12:02:26.626Z,1.70
2022-11-08T12:04:59.815Z,2.17
2022-11-08T12:07:30.066Z,1.92
2022-11-08T12:10:02.814Z,1.83
2022-11-08T12:13:14.974Z,1.88
2022-11-08T12:15:49.751Z,1.60
2022-11-08T12:18:41.684Z,1.83
2022-11-08T12:21:23.267Z,1.88
2022-11-08T12:24:20.131Z,1.92
2022-11-08T12:26:56.737Z,1.98
2022-11-08T12:29:53.641Z,2.20
2022-11-08T12:32:39.320Z,2.05
2022-11-08T12:35:09.172Z,1.65
2022-11-08T12:37:54.911Z,2.13
2022-11-08T12:40:49.119Z,2.47
2022-11-08T12:43:21.973Z,2.20
2022-11-08T12:46:19.278Z,1.85
2022-11-08T12:49:06.870Z,2.08
2022-11-08T12:52:17.338Z,1.77
2022-11-08T12:55:08.522Z,2.15
2022-11-08T12:57:36.033Z,2.05
2022-11-08T13:19:45.664Z,2.10
2022-11-08T13:22:34.124Z,1.60
2022-11-08T13:25:13.685Z,2.08
2022-11-08T13:27:45.563Z,2.00
2022-11-08T13:30:14.260Z,2.03
2022-11-08T13:32:54.202Z,1.83
2022-11-08T13:35:31.392Z,2.10
2022-11-08T13:38:23.186Z,1.90
2022-11-08T13:41:02.403Z,1.85
2022-11-08T13:43:31.972Z,2.30
2022-11-08T13:46:23.147Z,2.08
2022-11-08T13:49:17.977Z,2.08
2022-11-08T13:54:21.599Z,2.13
2022-11-08T13:57:01.074Z,2.20
2022-11-08T13:59:30.957Z,1.90
2022-11-08T14:02:30.997Z,1.70
2022-11-08T14:05:18.657Z,1.63
2022-11-08T14:07:56.983Z,2.15
2022-11-08T14:10:32.864Z,2.13
2022-11-08T14:13:24.047Z,1.98
2022-11-08T14:16:13.071Z,1.85
2022-11-08T14:18:40.294Z,2.00
2022-11-08T14:21:08.326Z,1.67
2022-11-08T14:23:42.662Z,2.60
2022-11-08T14:26:23.460Z,1.90
2022-11-08T14:28:53.056Z,2.20
2022-11-08T14:31:30.796Z,2.17
2022-11-08T14:33:59.339Z,1.98
2022-11-08T14:36:28.464Z,2.50
2022-11-08T14:39:19.381Z,2.35
2022-11-08T14:41:51.644Z,2.45
2022-11-08T14:44:19.394Z,2.00
2022-11-08T14:46:46.735Z,2.20
2022-11-08T14:49:13.948Z,1.90
2022-11-08T14:51:43.608Z,2.00
2022-11-08T14:54:22.385Z,1.85
2022-11-08T14:56:50.569Z,2.15
2022-11-08T14:59:17.928Z,1.90
2022-11-08T15:01:48.323Z,2.00
2022-11-08T15:04:21.345Z,2.50
2022-11-08T15:06:56.685Z,3.13
2022-11-08T15:09:34.729Z,2.60
2022-11-08T15:12:40.353Z,7.35
2022-11-08T15:15:20.493Z,4.15
2022-11-08T15:17:48.392Z,2.50
2022-11-08T15:20:21.969Z,2.67
2022-11-08T15:22:52.895Z,2.05
2022-11-08T15:25:35.544Z,2.53
2022-11-08T15:28:23.529Z,2.15
2022-11-08T15:31:03.141Z,2.63
2022-11-08T15:33:36.451Z,2.53
2022-11-08T15:36:12.927Z,2.37
2022-11-08T15:38:43.556Z,2.13
2022-11-08T15:41:33.947Z,2.28
2022-11-08T15:44:15.206Z,2.17
2022-11-08T15:46:42.800Z,2.63
2022-11-08T15:49:27.907Z,2.50
2022-11-08T15:51:56.861Z,2.30
2022-11-08T15:54:25.111Z,3.08
2022-11-08T15:56:54.618Z,2.38
2022-11-08T15:59:25.580Z,2.95
2022-11-08T16:02:02.737Z,3.03
2022-11-08T16:04:30.027Z,2.40
2022-11-08T16:06:58.126Z,3.00
2022-11-08T16:09:25.198Z,2.70
2022-11-08T16:11:52.295Z,6.53
2022-11-08T16:14:22.947Z,3.58
2022-11-08T16:16:50.616Z,3.85
2022-11-08T16:19:22.192Z,2.70
2022-11-08T16:21:49.935Z,2.88
2022-11-08T16:24:17.657Z,3.08
2022-11-08T16:26:46.291Z,2.75
2022-11-08T16:29:22.814Z,2.10
2022-11-08T16:31:51.377Z,2.28
2022-11-08T16:34:18.995Z,2.47
2022-11-08T16:36:47.516Z,2.63
2022-11-08T16:39:17.658Z,2.50
2022-11-08T16:41:45.046Z,2.05
2022-11-08T16:44:12.668Z,2.70
2022-11-08T16:46:40.215Z,2.58
2022-11-08T16:49:13.478Z,2.35
2022-11-08T16:51:40.511Z,2.60
2022-11-08T16:54:18.649Z,2.08
2022-11-08T16:56:45.908Z,2.45
2022-11-08T16:59:13.215Z,1.83
2022-11-08T17:01:40.659Z,2.17
2022-11-08T17:04:07.888Z,2.05
2022-11-08T17:06:35.155Z,2.20
2022-11-08T17:09:02.397Z,2.05
2022-11-08T17:11:29.661Z,1.63
2022-11-08T17:13:57.068Z,2.03
2022-11-08T17:16:24.404Z,1.95
2022-11-08T17:18:53.544Z,1.88
2022-11-08T17:24:08.980Z,2.38
2022-11-08T17:26:36.211Z,2.08
2022-11-08T17:29:03.952Z,2.60
2022-11-08T17:31:31.205Z,3.15
2022-11-08T17:33:58.434Z,2.42
2022-11-08T17:36:25.902Z,2.20
2022-11-08T17:38:53.393Z,2.25
2022-11-08T17:41:20.854Z,2.40
2022-11-08T17:43:48.295Z,2.20
2022-11-08T17:46:15.631Z,2.35
2022-11-08T17:48:43.060Z,2.42
2022-11-08T17:51:12.306Z,2.17
2022-11-08T17:53:39.848Z,2.55
2022-11-08T17:56:07.608Z,2.60
2022-11-08T17:58:35.586Z,2.67
2022-11-08T18:01:06.156Z,2.45
2022-11-08T18:03:34.258Z,2.50
2022-11-08T18:06:07.272Z,2.40
2022-11-08T18:08:39.957Z,2.30
2022-11-08T18:11:07.531Z,2.20
2022-11-08T18:13:35.794Z,2.40
2022-11-08T18:16:12.042Z,2.50
2022-11-08T18:18:39.705Z,2.42
2022-11-08T18:21:07.783Z,1.85
2022-11-08T18:23:35.130Z,2.50
2022-11-08T18:26:02.796Z,2.33
2022-11-08T18:28:30.139Z,2.10
2022-11-08T18:31:06.091Z,2.33
2022-11-08T18:33:33.247Z,2.20
2022-11-08T18:36:07.900Z,2.20
2022-11-08T18:38:36.059Z,2.35
2022-11-08T18:41:03.771Z,2.13
2022-11-08T18:43:31.011Z,2.20
2022-11-08T18:46:02.699Z,2.38
2022-11-08T18:48:30.397Z,2.28
2022-11-08T18:50:57.577Z,2.38
2022-11-08T18:53:24.693Z,2.10
2022-11-08T18:55:52.266Z,2.03
2022-11-08T18:58:20.306Z,2.22
2022-11-08T19:00:48.341Z,2.55
2022-11-08T19:03:15.466Z,2.15
2022-11-08T19:05:47.437Z,2.65
2022-11-08T19:08:15.854Z,2.25
2022-11-08T19:11:08.170Z,2.20
2022-11-08T19:13:37.627Z,2.10
2022-11-08T19:16:06.539Z,2.22
2022-11-08T19:18:34.948Z,2.47
2022-11-08T19:21:08.133Z,2.25
2022-11-08T19:23:35.826Z,2.25
2022-11-08T19:26:05.804Z,2.30
2022-11-08T19:28:36.377Z,2.42
2022-11-08T19:31:05.472Z,2.80
2022-11-08T19:33:33.757Z,2.80
2022-11-08T19:36:05.526Z,2.72
2022-11-08T19:38:34.588Z,2.78
2022-11-08T19:41:03.830Z,2.53
2022-11-08T19:43:33.559Z,2.28
2022-11-08T19:46:02.662Z,2.53
2022-11-08T19:48:36.049Z,2.33
2022-11-08T19:51:08.563Z,2.28
2022-11-08T19:53:36.126Z,2.50
2022-11-08T19:56:06.209Z,2.25
2022-11-08T19:58:34.903Z,2.30
2022-11-08T20:01:40.357Z,2.28
2022-11-08T20:04:10.495Z,2.13
2022-11-08T20:06:38.268Z,2.17
2022-11-08T20:09:06.500Z,1.77
2022-11-08T20:11:37.321Z,2.33
2022-11-08T20:14:05.457Z,1.92
2022-11-08T20:16:38.094Z,2.35
2022-11-08T20:19:11.677Z,2.15
2022-11-08T20:21:40.837Z,2.55
2022-11-08T20:24:09.670Z,2.30
2022-11-08T20:26:38.639Z,2.22
2022-11-08T20:29:07.416Z,2.47
2022-11-08T20:31:35.147Z,2.22
2022-11-08T20:34:05.909Z,2.10
2022-11-08T20:36:35.288Z,2.25
2022-11-08T20:39:06.938Z,2.40
2022-11-08T20:41:37.842Z,2.60
2022-11-08T20:44:06.550Z,2.10
2022-11-08T20:46:34.769Z,2.40
2022-11-08T20:49:02.395Z,2.17
2022-11-08T20:51:30.891Z,2.38
2022-11-08T20:53:59.637Z,2.42
2022-11-08T20:56:27.758Z,2.55
2022-11-08T20:58:54.916Z,2.17
2022-11-08T21:01:24.348Z,2.35
2022-11-08T21:03:52.690Z,2.53
2022-11-08T21:06:24.588Z,2.05
2022-11-08T21:09:05.570Z,2.28
2022-11-08T21:11:37.813Z,2.00
2022-11-08T21:14:05.565Z,1.70
2022-11-08T21:16:47.363Z,2.40
2022-11-08T21:19:20.304Z,1.98
2022-11-08T21:21:47.621Z,2.10
2022-11-08T21:24:14.688Z,1.95
2022-11-08T21:26:41.716Z,2.58
2022-11-08T21:29:08.812Z,1.50
2022-11-08T21:31:36.190Z,1.80
2022-11-08T21:34:03.307Z,2.00
2022-11-08T21:36:30.478Z,2.28
2022-11-08T21:38:57.579Z,1.90
2022-11-08T21:41:24.666Z,1.80
2022-11-08T21:43:51.680Z,1.70
2022-11-08T21:46:24.995Z,1.80
2022-11-08T21:48:58.688Z,1.93
2022-11-08T21:51:26.762Z,1.63
2022-11-08T21:53:55.884Z,1.73
2022-11-08T21:56:31.041Z,1.70
2022-11-08T21:58:58.607Z,1.85
2022-11-08T22:01:30.303Z,1.83
2022-11-08T22:03:58.769Z,1.50
2022-11-08T22:06:26.346Z,2.10
2022-11-08T22:08:53.793Z,2.30
2022-11-08T22:11:20.837Z,2.10
2022-11-08T22:13:47.884Z,2.08
2022-11-08T22:16:14.963Z,1.55
2022-11-08T22:19:03.533Z,1.50
2022-11-08T22:21:38.222Z,1.85
2022-11-08T22:24:10.672Z,2.22
2022-11-08T22:26:38.560Z,1.90
2022-11-08T22:29:06.331Z,2.50
2022-11-08T22:31:33.720Z,2.20
2022-11-08T22:34:01.138Z,2.05
2022-11-08T22:36:28.710Z,2.13
2022-11-08T22:38:55.959Z,2.08
2022-11-08T22:41:23.739Z,2.05
2022-11-08T22:43:51.456Z,2.67
2022-11-08T22:46:19.257Z,2.15
2022-11-08T22:48:46.377Z,2.30
2022-11-08T22:51:14.046Z,2.42
2022-11-08T22:53:41.643Z,1.90
2022-11-08T22:56:11.538Z,1.58
2022-11-08T22:58:39.747Z,1.50
2022-11-08T23:01:08.243Z,1.50
2022-11-08T23:03:35.378Z,1.35
2022-11-08T23:06:02.554Z,1.63
2022-11-08T23:08:30.353Z,1.73
2022-11-08T23:11:18.266Z,1.33
2022-11-08T23:14:04.353Z,1.65
2022-11-08T23:16:40.354Z,1.70
2022-11-08T23:19:27.717Z,1.80
2022-11-08T23:22:14.005Z,1.60
2022-11-08T23:24:43.104Z,1.55
2022-11-08T23:27:30.181Z,1.48
2022-11-08T23:30:16.098Z,1.33
2022-11-08T23:32:45.555Z,1.40
2022-11-08T23:35:14.072Z,1.23
2022-11-08T23:37:41.546Z,1.38
2022-11-08T23:40:29.033Z,1.40
2022-11-08T23:43:31.297Z,1.38
2022-11-08T23:46:03.785Z,1.60
2022-11-08T23:48:30.873Z,1.73
2022-11-08T23:50:58.001Z,1.40
2022-11-08T23:53:25.458Z,1.70
2022-11-08T23:55:56.718Z,1.70
2022-11-08T23:58:24.352Z,2.00
